sensor_id;sensor_type;location;lat;lon;timestamp;pressure;altitude;pressure_sealevel;temperature;humidity
18569;BME280;14780;48.316;-1.050;2023-02-15T00:01:49;100009.72;;;24.24;32.36
18569;BME280;14780;48.316;-1.050;2023-02-15T00:04:33;100011.63;;;24.24;32.30
18569;BME280;14780;48.316;-1.050;2023-02-15T00:07:36;100007.22;;;24.23;32.41
18569;BME280;14780;48.316;-1.050;2023-02-15T00:10:21;100004.78;;;24.21;32.34
18569;BME280;14780;48.316;-1.050;2023-02-15T00:13:05;100007.75;;;24.20;32.39
18569;BME280;14780;48.316;-1.050;2023-02-15T00:15:50;100011.06;;;24.22;32.44
18569;BME280;14780;48.316;-1.050;2023-02-15T00:18:34;100010.50;;;24.20;32.33
18569;BME280;14780;48.316;-1.050;2023-02-15T00:21:19;100005.78;;;24.15;32.41
18569;BME280;14780;48.316;-1.050;2023-02-15T00:24:05;100008.84;;;24.19;32.44
18569;BME280;14780;48.316;-1.050;2023-02-15T00:26:51;100007.44;;;24.16;32.31
18569;BME280;14780;48.316;-1.050;2023-02-15T00:29:36;100001.72;;;24.18;32.46
18569;BME280;14780;48.316;-1.050;2023-02-15T00:32:21;99989.38;;;24.15;32.42
18569;BME280;14780;48.316;-1.050;2023-02-15T00:35:06;99987.72;;;24.14;32.37
18569;BME280;14780;48.316;-1.050;2023-02-15T00:37:51;99986.88;;;24.14;32.35
18569;BME280;14780;48.316;-1.050;2023-02-15T00:40:37;99981.41;;;24.14;32.33
18569;BME280;14780;48.316;-1.050;2023-02-15T00:43:21;99978.91;;;24.12;32.30
18569;BME280;14780;48.316;-1.050;2023-02-15T00:46:06;99978.34;;;24.10;32.33
18569;BME280;14780;48.316;-1.050;2023-02-15T00:48:51;99979.44;;;24.09;32.30
18569;BME280;14780;48.316;-1.050;2023-02-15T00:51:36;99978.13;;;24.12;32.35
18569;BME280;14780;48.316;-1.050;2023-02-15T00:54:21;99971.81;;;24.11;32.34
18569;BME280;14780;48.316;-1.050;2023-02-15T00:57:06;99973.97;;;24.09;32.29
18569;BME280;14780;48.316;-1.050;2023-02-15T00:59:50;99972.88;;;24.10;32.26
18569;BME280;14780;48.316;-1.050;2023-02-15T01:02:35;99970.41;;;24.09;32.25
18569;BME280;14780;48.316;-1.050;2023-02-15T01:05:20;99966.84;;;24.08;32.29
18569;BME280;14780;48.316;-1.050;2023-02-15T01:08:04;99967.66;;;24.09;32.33
18569;BME280;14780;48.316;-1.050;2023-02-15T01:10:49;99964.94;;;24.09;32.31
18569;BME280;14780;48.316;-1.050;2023-02-15T01:13:35;99959.72;;;24.07;32.25
18569;BME280;14780;48.316;-1.050;2023-02-15T01:16:20;99958.09;;;24.06;32.24
18569;BME280;14780;48.316;-1.050;2023-02-15T01:19:05;99963.03;;;24.09;32.32
18569;BME280;14780;48.316;-1.050;2023-02-15T01:21:50;99964.38;;;24.07;32.23
18569;BME280;14780;48.316;-1.050;2023-02-15T01:24:35;99966.28;;;24.06;32.30
18569;BME280;14780;48.316;-1.050;2023-02-15T01:27:20;99966.28;;;24.06;32.18
18569;BME280;14780;48.316;-1.050;2023-02-15T01:30:04;99969.59;;;24.08;32.23
18569;BME280;14780;48.316;-1.050;2023-02-15T01:32:49;99967.94;;;24.07;32.18
18569;BME280;14780;48.316;-1.050;2023-02-15T01:35:34;99966.00;;;24.08;32.26
18569;BME280;14780;48.316;-1.050;2023-02-15T01:38:20;99967.94;;;24.07;32.22
18569;BME280;14780;48.316;-1.050;2023-02-15T01:41:06;99969.03;;;24.06;32.16
18569;BME280;14780;48.316;-1.050;2023-02-15T01:53:21;99966.00;;;24.08;32.21
18569;BME280;14780;48.316;-1.050;2023-02-15T01:56:21;99962.19;;;24.09;32.18
18569;BME280;14780;48.316;-1.050;2023-02-15T01:59:11;99962.72;;;24.06;32.25
18569;BME280;14780;48.316;-1.050;2023-02-15T02:01:59;99959.72;;;24.07;32.17
18569;BME280;14780;48.316;-1.050;2023-02-15T02:04:48;99952.09;;;24.09;32.21
18569;BME280;14780;48.316;-1.050;2023-02-15T02:07:37;99948.78;;;24.07;32.11
18569;BME280;14780;48.316;-1.050;2023-02-15T02:10:24;99946.63;;;24.09;32.18
18569;BME280;14780;48.316;-1.050;2023-02-15T02:13:08;99946.63;;;24.09;32.16
18569;BME280;14780;48.316;-1.050;2023-02-15T02:23:02;99933.47;;;24.06;32.10
18569;BME280;14780;48.316;-1.050;2023-02-15T02:44:48;99909.38;;;24.03;32.05
18569;BME280;14780;48.316;-1.050;2023-02-15T02:47:48;99904.72;;;24.04;32.05
18569;BME280;14780;48.316;-1.050;2023-02-15T02:50:38;99897.34;;;24.04;32.01
18569;BME280;14780;48.316;-1.050;2023-02-15T02:53:24;99900.06;;;24.04;32.09
18569;BME280;14780;48.316;-1.050;2023-02-15T02:59:12;99895.69;;;24.03;31.99
18569;BME280;14780;48.316;-1.050;2023-02-15T03:02:20;99895.69;;;24.03;32.10
18569;BME280;14780;48.316;-1.050;2023-02-15T03:05:10;99890.78;;;24.05;31.99
18569;BME280;14780;48.316;-1.050;2023-02-15T03:08:00;99900.06;;;24.04;31.98
18569;BME280;14780;48.316;-1.050;2023-02-15T03:10:53;99894.59;;;24.04;31.99
18569;BME280;14780;48.316;-1.050;2023-02-15T03:13:40;99893.19;;;24.02;31.97
18569;BME280;14780;48.316;-1.050;2023-02-15T03:16:26;99894.59;;;24.04;31.95
18569;BME280;14780;48.316;-1.050;2023-02-15T03:19:20;99900.91;;;24.05;31.95
18569;BME280;14780;48.316;-1.050;2023-02-15T03:22:20;99897.34;;;24.04;31.99
18569;BME280;14780;48.316;-1.050;2023-02-15T03:25:16;99896.25;;;24.05;32.02
18569;BME280;14780;48.316;-1.050;2023-02-15T03:28:08;99895.69;;;24.03;31.97
18569;BME280;14780;48.316;-1.050;2023-02-15T03:30:56;99898.44;;;24.03;32.06
18569;BME280;14780;48.316;-1.050;2023-02-15T03:33:57;99892.97;;;24.03;31.93
18569;BME280;14780;48.316;-1.050;2023-02-15T03:36:50;99891.06;;;24.04;32.11
18569;BME280;14780;48.316;-1.050;2023-02-15T03:40:07;99890.47;;;24.02;31.89
18569;BME280;14780;48.316;-1.050;2023-02-15T03:46:24;99892.41;;;24.01;32.01
18569;BME280;14780;48.316;-1.050;2023-02-15T03:49:25;99883.34;;;24.01;31.91
18569;BME280;14780;48.316;-1.050;2023-02-15T03:52:13;99878.72;;;24.01;32.00
18569;BME280;14780;48.316;-1.050;2023-02-15T03:54:59;99875.44;;;23.99;31.98
18569;BME280;14780;48.316;-1.050;2023-02-15T03:57:44;99882.53;;;24.00;32.02
18569;BME280;14780;48.316;-1.050;2023-02-15T04:00:57;99878.72;;;24.01;32.01
18569;BME280;14780;48.316;-1.050;2023-02-15T04:04:15;99889.91;;;24.00;31.94
18569;BME280;14780;48.316;-1.050;2023-02-15T04:07:03;99891.84;;;23.99;31.87
18569;BME280;14780;48.316;-1.050;2023-02-15T04:09:48;99889.09;;;23.99;31.92
18569;BME280;14780;48.316;-1.050;2023-02-15T04:12:52;99891.84;;;23.99;31.82
18569;BME280;14780;48.316;-1.050;2023-02-15T04:15:36;99888.00;;;24.00;31.82
18569;BME280;14780;48.316;-1.050;2023-02-15T04:18:42;99880.63;;;24.01;31.89
18569;BME280;14780;48.316;-1.050;2023-02-15T04:21:46;99883.34;;;24.01;31.88
18569;BME280;14780;48.316;-1.050;2023-02-15T04:24:49;99878.97;;;24.00;31.89
18569;BME280;14780;48.316;-1.050;2023-02-15T04:27:54;99876.25;;;24.00;31.78
18569;BME280;14780;48.316;-1.050;2023-02-15T04:30:39;99868.28;;;23.98;31.91
18569;BME280;14780;48.316;-1.050;2023-02-15T04:33:23;99877.06;;;24.00;31.79
18569;BME280;14780;48.316;-1.050;2023-02-15T04:36:08;99867.47;;;23.98;31.83
18569;BME280;14780;48.316;-1.050;2023-02-15T04:38:53;99871.00;;;23.98;31.84
18569;BME280;14780;48.316;-1.050;2023-02-15T04:41:37;99873.75;;;23.98;31.82
18569;BME280;14780;48.316;-1.050;2023-02-15T04:44:22;99880.91;;;23.99;31.84
18569;BME280;14780;48.316;-1.050;2023-02-15T04:47:06;99880.06;;;23.99;31.71
18569;BME280;14780;48.316;-1.050;2023-02-15T04:49:51;99881.94;;;23.98;31.77
18569;BME280;14780;48.316;-1.050;2023-02-15T04:52:35;99883.88;;;23.98;31.84
18569;BME280;14780;48.316;-1.050;2023-02-15T04:55:20;99874.84;;;23.97;31.75
18569;BME280;14780;48.316;-1.050;2023-02-15T04:58:05;99875.91;;;23.96;31.80
18569;BME280;14780;48.316;-1.050;2023-02-15T05:00:50;99877.56;;;23.97;31.84
18569;BME280;14780;48.316;-1.050;2023-02-15T05:03:35;99874.03;;;23.97;31.68
18569;BME280;14780;48.316;-1.050;2023-02-15T05:06:20;99870.44;;;23.96;31.76
18569;BME280;14780;48.316;-1.050;2023-02-15T05:09:05;99875.09;;;23.96;31.78
18569;BME280;14780;48.316;-1.050;2023-02-15T05:11:50;99879.75;;;23.95;31.75
18569;BME280;14780;48.316;-1.050;2023-02-15T05:14:34;99869.66;;;23.96;31.75
18569;BME280;14780;48.316;-1.050;2023-02-15T05:17:19;99870.44;;;23.96;31.67
18569;BME280;14780;48.316;-1.050;2023-02-15T05:20:04;99875.91;;;23.96;31.80
18569;BME280;14780;48.316;-1.050;2023-02-15T05:22:52;99880.56;;;23.96;31.74
18569;BME280;14780;48.316;-1.050;2023-02-15T05:25:37;99875.91;;;23.96;31.73
18569;BME280;14780;48.316;-1.050;2023-02-15T05:28:41;99877.25;;;23.94;31.81
18569;BME280;14780;48.316;-1.050;2023-02-15T05:31:25;99879.75;;;23.95;31.67
18569;BME280;14780;48.316;-1.050;2023-02-15T05:34:10;99872.63;;;23.94;31.81
18569;BME280;14780;48.316;-1.050;2023-02-15T05:36:55;99876.44;;;23.93;31.67
18569;BME280;14780;48.316;-1.050;2023-02-15T05:39:39;99874.78;;;23.92;31.63
18569;BME280;14780;48.316;-1.050;2023-02-15T05:42:24;99866.31;;;23.94;31.65
18569;BME280;14780;48.316;-1.050;2023-02-15T05:45:09;99870.97;;;23.93;31.75
18569;BME280;14780;48.316;-1.050;2023-02-15T05:47:54;99870.69;;;23.95;31.76
18569;BME280;14780;48.316;-1.050;2023-02-15T05:50:39;99872.63;;;23.94;31.66
18569;BME280;14780;48.316;-1.050;2023-02-15T05:53:24;99876.44;;;23.93;31.70
18569;BME280;14780;48.316;-1.050;2023-02-15T05:56:10;99878.09;;;23.94;31.66
18569;BME280;14780;48.316;-1.050;2023-02-15T05:58:56;99865.50;;;23.93;31.63
18569;BME280;14780;48.316;-1.050;2023-02-15T06:01:41;99879.19;;;23.93;31.64
18569;BME280;14780;48.316;-1.050;2023-02-15T06:04:25;99875.59;;;23.93;31.59
18569;BME280;14780;48.316;-1.050;2023-02-15T06:07:10;99879.41;;;23.92;31.61
18569;BME280;14780;48.316;-1.050;2023-02-15T06:09:55;99882.41;;;23.90;31.56
18569;BME280;14780;48.316;-1.050;2023-02-15T06:12:39;99877.78;;;23.91;31.67
18569;BME280;14780;48.316;-1.050;2023-02-15T06:15:24;99878.56;;;23.91;31.56
18569;BME280;14780;48.316;-1.050;2023-02-15T06:18:09;99885.13;;;23.90;31.70
18569;BME280;14780;48.316;-1.050;2023-02-15T06:20:53;99897.72;;;23.91;31.67
18569;BME280;14780;48.316;-1.050;2023-02-15T06:23:38;99896.06;;;23.90;31.63
18569;BME280;14780;48.316;-1.050;2023-02-15T06:26:22;99882.41;;;23.90;31.56
18569;BME280;14780;48.316;-1.050;2023-02-15T06:29:07;99892.25;;;23.91;31.69
18569;BME280;14780;48.316;-1.050;2023-02-15T06:31:52;99888.94;;;23.89;31.59
18569;BME280;14780;48.316;-1.050;2023-02-15T06:34:37;99886.22;;;23.89;31.64
18569;BME280;14780;48.316;-1.050;2023-02-15T06:37:21;99892.75;;;23.88;31.55
18569;BME280;14780;48.316;-1.050;2023-02-15T06:40:07;99893.31;;;23.90;31.51
18569;BME280;14780;48.316;-1.050;2023-02-15T06:42:52;99881.84;;;23.88;31.53
18569;BME280;14780;48.316;-1.050;2023-02-15T06:45:37;99907.28;;;23.89;31.64
18569;BME280;14780;48.316;-1.050;2023-02-15T06:48:21;99900.97;;;23.88;31.50
18569;BME280;14780;48.316;-1.050;2023-02-15T06:51:06;99900.97;;;23.88;31.57
18569;BME280;14780;48.316;-1.050;2023-02-15T06:53:50;99895.50;;;23.88;31.59
18569;BME280;14780;48.316;-1.050;2023-02-15T06:56:35;99898.22;;;23.88;31.52
18569;BME280;14780;48.316;-1.050;2023-02-15T06:59:20;99890.28;;;23.87;31.50
18569;BME280;14780;48.316;-1.050;2023-02-15T07:02:05;99897.66;;;23.86;31.52
18569;BME280;14780;48.316;-1.050;2023-02-15T07:04:49;99905.88;;;23.86;31.59
18569;BME280;14780;48.316;-1.050;2023-02-15T07:07:34;99909.41;;;23.87;31.52
18569;BME280;14780;48.316;-1.050;2023-02-15T07:10:19;99907.50;;;23.87;31.46
18569;BME280;14780;48.316;-1.050;2023-02-15T07:13:04;99909.66;;;23.85;31.48
18569;BME280;14780;48.316;-1.050;2023-02-15T07:15:49;99916.53;;;23.88;31.60
18569;BME280;14780;48.316;-1.050;2023-02-15T07:18:33;99911.31;;;23.86;31.48
18569;BME280;14780;48.316;-1.050;2023-02-15T07:21:18;99921.66;;;23.84;31.53
18569;BME280;14780;48.316;-1.050;2023-02-15T07:24:03;99920.81;;;23.84;31.61
18569;BME280;14780;48.316;-1.050;2023-02-15T07:26:48;99923.31;;;23.85;31.52
18569;BME280;14780;48.316;-1.050;2023-02-15T07:29:32;99918.69;;;23.86;31.63
18569;BME280;14780;48.316;-1.050;2023-02-15T07:32:17;99925.00;;;23.86;31.68
18569;BME280;14780;48.316;-1.050;2023-02-15T07:35:02;99931.28;;;23.87;31.58
18569;BME280;14780;48.316;-1.050;2023-02-15T07:37:47;99935.94;;;23.86;31.59
18569;BME280;14780;48.316;-1.050;2023-02-15T07:40:31;99925.00;;;23.86;31.61
18569;BME280;14780;48.316;-1.050;2023-02-15T07:43:16;99933.41;;;23.85;31.62
18569;BME280;14780;48.316;-1.050;2023-02-15T07:46:06;99932.59;;;23.84;31.52
18569;BME280;14780;48.316;-1.050;2023-02-15T07:48:55;99935.56;;;23.83;31.60
18569;BME280;14780;48.316;-1.050;2023-02-15T07:51:40;99944.00;;;23.81;31.60
18569;BME280;14780;48.316;-1.050;2023-02-15T07:54:25;99944.53;;;23.78;31.65
18569;BME280;14780;48.316;-1.050;2023-02-15T07:57:10;99954.38;;;23.79;31.64
18569;BME280;14780;48.316;-1.050;2023-02-15T07:59:54;99954.94;;;23.81;31.82
18569;BME280;14780;48.316;-1.050;2023-02-15T08:02:39;99952.53;;;23.85;31.77
18569;BME280;14780;48.316;-1.050;2023-02-15T08:05:24;99947.66;;;23.87;31.79
18569;BME280;14780;48.316;-1.050;2023-02-15T08:08:10;99948.50;;;23.87;31.86
18569;BME280;14780;48.316;-1.050;2023-02-15T08:11:18;99942.69;;;23.84;31.92
18569;BME280;14780;48.316;-1.050;2023-02-15T08:14:10;99940.56;;;23.86;31.81
18569;BME280;14780;48.316;-1.050;2023-02-15T08:16:58;99947.31;;;23.83;31.85
18569;BME280;14780;48.316;-1.050;2023-02-15T08:19:46;99936.38;;;23.83;31.77
18569;BME280;14780;48.316;-1.050;2023-02-15T08:22:32;99940.19;;;23.82;31.78
18569;BME280;14780;48.316;-1.050;2023-02-15T08:25:16;99940.47;;;23.81;31.92
18569;BME280;14780;48.316;-1.050;2023-02-15T08:28:01;99936.38;;;23.83;31.83
18569;BME280;14780;48.316;-1.050;2023-02-15T08:30:46;99938.53;;;23.81;31.79
18569;BME280;14780;48.316;-1.050;2023-02-15T08:33:30;99931.69;;;23.79;31.79
18569;BME280;14780;48.316;-1.050;2023-02-15T08:36:17;99936.91;;;23.80;31.77
18569;BME280;14780;48.316;-1.050;2023-02-15T08:39:04;99933.00;;;23.76;31.75
18569;BME280;14780;48.316;-1.050;2023-02-15T08:41:50;99941.19;;;23.76;31.93
18569;BME280;14780;48.316;-1.050;2023-02-15T08:44:35;99942.56;;;23.74;31.79
18569;BME280;14780;48.316;-1.050;2023-02-15T08:47:19;99951.56;;;23.74;31.81
18569;BME280;14780;48.316;-1.050;2023-02-15T08:50:04;99961.34;;;23.70;31.80
18569;BME280;14780;48.316;-1.050;2023-02-15T08:52:49;99955.28;;;23.68;31.70
18569;BME280;14780;48.316;-1.050;2023-02-15T08:55:34;99957.44;;;23.66;31.67
18569;BME280;14780;48.316;-1.050;2023-02-15T08:58:18;99957.13;;;23.63;31.78
18569;BME280;14780;48.316;-1.050;2023-02-15T09:01:11;99970.78;;;23.63;31.73
18569;BME280;14780;48.316;-1.050;2023-02-15T09:03:59;99960.09;;;23.61;31.85
18569;BME280;14780;48.316;-1.050;2023-02-15T09:06:45;99965.00;;;23.59;31.76
18569;BME280;14780;48.316;-1.050;2023-02-15T09:09:30;99961.09;;;23.55;31.82
18569;BME280;14780;48.316;-1.050;2023-02-15T09:12:16;99962.16;;;23.54;31.83
18569;BME280;14780;48.316;-1.050;2023-02-15T09:15:01;99963.53;;;23.52;31.90
18569;BME280;14780;48.316;-1.050;2023-02-15T09:17:45;99970.88;;;23.51;31.87
18569;BME280;14780;48.316;-1.050;2023-02-15T09:20:30;99969.72;;;23.47;31.84
18569;BME280;14780;48.316;-1.050;2023-02-15T09:23:14;99975.16;;;23.47;31.96
18569;BME280;14780;48.316;-1.050;2023-02-15T09:26:03;99976.25;;;23.46;31.92
18569;BME280;14780;48.316;-1.050;2023-02-15T09:28:51;99977.56;;;23.44;31.94
18569;BME280;14780;48.316;-1.050;2023-02-15T09:31:41;99966.06;;;23.42;31.91
18569;BME280;14780;48.316;-1.050;2023-02-15T09:34:28;99971.19;;;23.38;31.99
18569;BME280;14780;48.316;-1.050;2023-02-15T09:37:14;99964.09;;;23.38;31.88
18569;BME280;14780;48.316;-1.050;2023-02-15T09:39:59;99963.53;;;23.36;31.87
18569;BME280;14780;48.316;-1.050;2023-02-15T09:43:00;99966.25;;;23.36;31.90
18569;BME280;14780;48.316;-1.050;2023-02-15T09:48:59;99959.13;;;23.35;31.98
18569;BME280;14780;48.316;-1.050;2023-02-15T09:52:06;99962.91;;;23.33;31.94
18569;BME280;14780;48.316;-1.050;2023-02-15T10:01:02;99978.72;;;23.32;31.97
18569;BME280;14780;48.316;-1.050;2023-02-15T10:07:38;99992.88;;;23.29;31.98
18569;BME280;14780;48.316;-1.050;2023-02-15T10:19:55;100007.63;;;23.28;32.02
18569;BME280;14780;48.316;-1.050;2023-02-15T10:25:38;100004.28;;;23.26;32.10
18569;BME280;14780;48.316;-1.050;2023-02-15T10:32:20;99995.53;;;23.24;32.01
18569;BME280;14780;48.316;-1.050;2023-02-15T10:35:35;99987.34;;;23.24;32.06
18569;BME280;14780;48.316;-1.050;2023-02-15T10:41:15;99988.41;;;23.23;32.10
18569;BME280;14780;48.316;-1.050;2023-02-15T10:44:32;99997.69;;;23.22;32.08
18569;BME280;14780;48.316;-1.050;2023-02-15T10:47:51;100000.97;;;23.24;32.09
18569;BME280;14780;48.316;-1.050;2023-02-15T10:51:00;99986.75;;;23.22;32.17
18569;BME280;14780;48.316;-1.050;2023-02-15T11:08:50;100003.63;;;23.19;32.15
18569;BME280;14780;48.316;-1.050;2023-02-15T11:11:39;100003.63;;;23.19;32.11
18569;BME280;14780;48.316;-1.050;2023-02-15T11:17:28;100003.63;;;23.19;32.12
18569;BME280;14780;48.316;-1.050;2023-02-15T11:20:28;99987.84;;;23.21;32.12
18569;BME280;14780;48.316;-1.050;2023-02-15T11:23:16;99997.34;;;23.18;32.08
18569;BME280;14780;48.316;-1.050;2023-02-15T11:26:04;99993.19;;;23.16;31.97
18569;BME280;14780;48.316;-1.050;2023-02-15T11:31:54;99986.41;;;23.18;32.10
18569;BME280;14780;48.316;-1.050;2023-02-15T11:34:55;99988.88;;;23.20;32.20
18569;BME280;14780;48.316;-1.050;2023-02-15T11:40:54;99970.94;;;23.24;32.33
18569;BME280;14780;48.316;-1.050;2023-02-15T11:46:49;99968.88;;;23.31;32.39
18569;BME280;14780;48.316;-1.050;2023-02-15T11:49:35;99974.91;;;23.33;32.48
18569;BME280;14780;48.316;-1.050;2023-02-15T11:52:19;99972.53;;;23.36;32.46
18569;BME280;14780;48.316;-1.050;2023-02-15T11:55:12;99976.19;;;23.42;32.47
18569;BME280;14780;48.316;-1.050;2023-02-15T11:58:30;99959.28;;;23.44;32.45
18569;BME280;14780;48.316;-1.050;2023-02-15T12:04:30;99959.38;;;23.49;32.58
18569;BME280;14780;48.316;-1.050;2023-02-15T12:07:36;99952.84;;;23.50;32.59
18569;BME280;14780;48.316;-1.050;2023-02-15T12:10:26;99949.03;;;23.51;32.74
18569;BME280;14780;48.316;-1.050;2023-02-15T12:13:13;99949.59;;;23.53;32.73
18569;BME280;14780;48.316;-1.050;2023-02-15T12:16:04;99939.22;;;23.55;32.75
18569;BME280;14780;48.316;-1.050;2023-02-15T12:18:52;99937.09;;;23.57;32.78
18569;BME280;14780;48.316;-1.050;2023-02-15T12:21:42;99935.78;;;23.60;32.80
18569;BME280;14780;48.316;-1.050;2023-02-15T12:24:34;99947.03;;;23.63;32.96
18569;BME280;14780;48.316;-1.050;2023-02-15T12:30:32;99956.94;;;23.69;32.87
18569;BME280;14780;48.316;-1.050;2023-02-15T12:36:25;99946.34;;;23.73;32.82
18569;BME280;14780;48.316;-1.050;2023-02-15T12:41:57;99950.47;;;23.75;33.04
18569;BME280;14780;48.316;-1.050;2023-02-15T12:45:02;99943.94;;;23.76;32.97
18569;BME280;14780;48.316;-1.050;2023-02-15T12:50:52;99954.63;;;23.78;32.92
18569;BME280;14780;48.316;-1.050;2023-02-15T12:53:51;99946.19;;;23.79;32.89
18569;BME280;14780;48.316;-1.050;2023-02-15T12:56:35;99945.09;;;23.80;32.99
18569;BME280;14780;48.316;-1.050;2023-02-15T12:59:20;99941.28;;;23.81;32.83
18569;BME280;14780;48.316;-1.050;2023-02-15T13:02:13;99949.25;;;23.83;32.93
18569;BME280;14780;48.316;-1.050;2023-02-15T13:14:42;99935.66;;;23.88;32.80
18569;BME280;14780;48.316;-1.050;2023-02-15T13:17:04;99944.69;;;23.88;32.75
18569;BME280;14780;48.316;-1.050;2023-02-15T13:19:52;99937.06;;;23.90;32.89
18569;BME280;14780;48.316;-1.050;2023-02-15T13:22:41;99937.06;;;23.90;32.82
18569;BME280;14780;48.316;-1.050;2023-02-15T13:25:36;99927.78;;;23.91;32.81
18569;BME280;14780;48.316;-1.050;2023-02-15T13:28:42;99918.53;;;23.92;32.73
18569;BME280;14780;48.316;-1.050;2023-02-15T13:31:29;99915.78;;;23.92;32.79
18569;BME280;14780;48.316;-1.050;2023-02-15T13:34:34;99918.00;;;23.95;32.81
18569;BME280;14780;48.316;-1.050;2023-02-15T13:40:20;99899.44;;;23.97;32.73
18569;BME280;14780;48.316;-1.050;2023-02-15T13:49:36;99895.63;;;23.98;32.62
18569;BME280;14780;48.316;-1.050;2023-02-15T14:01:34;99886.28;;;23.94;32.42
18569;BME280;14780;48.316;-1.050;2023-02-15T14:04:31;99879.41;;;23.92;32.32
18569;BME280;14780;48.316;-1.050;2023-02-15T14:13:53;99875.28;;;23.89;32.40
18569;BME280;14780;48.316;-1.050;2023-02-15T14:26:38;99876.84;;;23.85;32.37
18569;BME280;14780;48.316;-1.050;2023-02-15T14:32:18;99885.88;;;23.86;32.33
18569;BME280;14780;48.316;-1.050;2023-02-15T14:35:12;99894.34;;;23.84;32.32
18569;BME280;14780;48.316;-1.050;2023-02-15T14:38:19;99882.06;;;23.87;32.39
18569;BME280;14780;48.316;-1.050;2023-02-15T14:41:11;99881.25;;;23.86;32.20
18569;BME280;14780;48.316;-1.050;2023-02-15T14:53:35;99896.81;;;23.86;32.33
18569;BME280;14780;48.316;-1.050;2023-02-15T14:56:23;99898.97;;;23.84;32.23
18569;BME280;14780;48.316;-1.050;2023-02-15T15:01:57;99902.53;;;23.84;32.24
18569;BME280;14780;48.316;-1.050;2023-02-15T15:04:56;99897.88;;;23.85;32.29
18569;BME280;14780;48.316;-1.050;2023-02-15T15:07:52;99906.91;;;23.85;32.26
18569;BME280;14780;48.316;-1.050;2023-02-15T15:10:40;99897.31;;;23.83;32.30
18569;BME280;14780;48.316;-1.050;2023-02-15T15:22:30;99885.50;;;23.77;32.25
18569;BME280;14780;48.316;-1.050;2023-02-15T15:31:47;99863.03;;;23.75;32.26
18569;BME280;14780;48.316;-1.050;2023-02-15T15:35:05;99881.06;;;23.76;32.24
18569;BME280;14780;48.316;-1.050;2023-02-15T15:49:59;99884.34;;;23.73;32.24
18569;BME280;14780;48.316;-1.050;2023-02-15T15:52:55;99876.97;;;23.74;32.23
18569;BME280;14780;48.316;-1.050;2023-02-15T15:55:40;99876.13;;;23.73;32.32
18569;BME280;14780;48.316;-1.050;2023-02-15T15:58:25;99874.47;;;23.72;32.30
18569;BME280;14780;48.316;-1.050;2023-02-15T16:01:11;99863.00;;;23.70;32.39
18569;BME280;14780;48.316;-1.050;2023-02-15T16:03:59;99860.25;;;23.70;32.28
18569;BME280;14780;48.316;-1.050;2023-02-15T16:06:44;99854.78;;;23.70;32.37
18569;BME280;14780;48.316;-1.050;2023-02-15T16:09:29;99860.25;;;23.70;32.34
18569;BME280;14780;48.316;-1.050;2023-02-15T16:12:15;99859.41;;;23.70;32.33
18569;BME280;14780;48.316;-1.050;2023-02-15T16:15:14;99860.25;;;23.70;32.35
18569;BME280;14780;48.316;-1.050;2023-02-15T16:18:00;99860.25;;;23.70;32.41
18569;BME280;14780;48.316;-1.050;2023-02-15T16:20:55;99855.84;;;23.69;32.43
18569;BME280;14780;48.316;-1.050;2023-02-15T16:26:49;99855.84;;;23.69;32.43
18569;BME280;14780;48.316;-1.050;2023-02-15T16:29:35;99866.22;;;23.67;32.44
18569;BME280;14780;48.316;-1.050;2023-02-15T16:32:21;99856.34;;;23.66;32.40
18569;BME280;14780;48.316;-1.050;2023-02-15T16:35:14;99868.38;;;23.65;32.45
18569;BME280;14780;48.316;-1.050;2023-02-15T16:37:59;99870.53;;;23.63;32.52
18569;BME280;14780;48.316;-1.050;2023-02-15T16:40:56;99867.81;;;23.63;32.41
18569;BME280;14780;48.316;-1.050;2023-02-15T16:43:44;99873.50;;;23.62;32.57
18569;BME280;14780;48.316;-1.050;2023-02-15T16:46:35;99866.63;;;23.59;32.46
18569;BME280;14780;48.316;-1.050;2023-02-15T16:49:24;99870.47;;;23.58;32.48
18569;BME280;14780;48.316;-1.050;2023-02-15T16:52:14;99886.28;;;23.56;32.48
18569;BME280;14780;48.316;-1.050;2023-02-15T16:55:03;99878.56;;;23.53;32.52
18569;BME280;14780;48.316;-1.050;2023-02-15T16:57:51;99869.56;;;23.53;32.48
18569;BME280;14780;48.316;-1.050;2023-02-15T17:00:39;99878.00;;;23.51;32.49
18569;BME280;14780;48.316;-1.050;2023-02-15T17:03:27;99888.94;;;23.51;32.54
18569;BME280;14780;48.316;-1.050;2023-02-15T17:06:24;99885.63;;;23.49;32.48
18569;BME280;14780;48.316;-1.050;2023-02-15T17:09:16;99892.19;;;23.48;32.50
18569;BME280;14780;48.316;-1.050;2023-02-15T17:12:09;99900.84;;;23.45;32.55
18569;BME280;14780;48.316;-1.050;2023-02-15T17:14:55;99892.91;;;23.44;32.78
18569;BME280;14780;48.316;-1.050;2023-02-15T17:17:40;99891.75;;;23.40;32.69
18569;BME280;14780;48.316;-1.050;2023-02-15T17:20:25;99898.03;;;23.40;32.74
18569;BME280;14780;48.316;-1.050;2023-02-15T17:23:24;99896.16;;;23.41;32.63
18569;BME280;14780;48.316;-1.050;2023-02-15T17:26:29;99911.44;;;23.42;32.68
18569;BME280;14780;48.316;-1.050;2023-02-15T17:29:33;99914.41;;;23.40;32.75
18569;BME280;14780;48.316;-1.050;2023-02-15T17:32:23;99904.84;;;23.38;32.83
18569;BME280;14780;48.316;-1.050;2023-02-15T17:35:26;99914.94;;;23.38;32.78
18569;BME280;14780;48.316;-1.050;2023-02-15T17:38:19;99916.59;;;23.38;33.00
18569;BME280;14780;48.316;-1.050;2023-02-15T17:41:05;99930.31;;;23.43;32.93
18569;BME280;14780;48.316;-1.050;2023-02-15T17:43:49;99925.34;;;23.40;32.95
18569;BME280;14780;48.316;-1.050;2023-02-15T17:46:36;99925.34;;;23.40;32.93
18569;BME280;14780;48.316;-1.050;2023-02-15T17:49:26;99931.13;;;23.44;33.03
18569;BME280;14780;48.316;-1.050;2023-02-15T17:52:18;99916.59;;;23.38;33.00
18569;BME280;14780;48.316;-1.050;2023-02-15T17:55:14;99916.81;;;23.37;33.01
18569;BME280;14780;48.316;-1.050;2023-02-15T17:58:19;99921.47;;;23.37;33.07
18569;BME280;14780;48.316;-1.050;2023-02-15T18:01:11;99917.09;;;23.36;33.16
18569;BME280;14780;48.316;-1.050;2023-02-15T18:04:18;99911.53;;;23.31;33.15
18569;BME280;14780;48.316;-1.050;2023-02-15T18:07:22;99912.38;;;23.31;33.18
18569;BME280;14780;48.316;-1.050;2023-02-15T18:10:25;99908.81;;;23.31;33.30
18569;BME280;14780;48.316;-1.050;2023-02-15T18:13:29;99924.13;;;23.32;33.31